Time;durP1;ratioP1;P1;durP2;ratioP2;P2;SDS_P1;SDS_P2;PMS_P1;PMS_P2;Temp;Humidity;BMP_temperature;BMP_pressure;BME280_temperature;BME280_humidity;BME280_pressure;Samples;Min_cycle;Max_cycle;Signal;HPM_P1;HPM_P2
2022/06/28 00:01:52;;;;;;;12.80;2.78;;;13.90;94.40;;;;;;5044387;28;20375;-69
2022/06/28 00:04:19;;;;;;;13.18;2.10;;;13.80;94.40;;;;;;5060118;28;20026;-67
2022/06/28 00:06:46;;;;;;;18.15;2.47;;;13.80;94.40;;;;;;5059896;28;20067;-68
2022/06/28 00:09:14;;;;;;;11.98;2.47;;;13.80;94.40;;;;;;5041834;28;20056;-67
2022/06/28 00:11:40;;;;;;;10.18;2.30;;;13.80;94.40;;;;;;5043891;28;20037;-67
2022/06/28 00:16:04;;;;;;;8.73;2.08;;;13.70;94.40;;;;;;5042983;28;20227;-66
2022/06/28 00:16:51;;;;;;;15.23;2.63;;;13.70;94.50;;;;;;5043467;28;20310;-68
2022/06/28 00:19:17;;;;;;;14.95;2.50;;;13.70;94.60;;;;;;5044456;28;20029;-70
2022/06/28 00:21:43;;;;;;;7.85;2.35;;;13.70;94.50;;;;;;5043432;28;20071;-68
2022/06/28 00:24:08;;;;;;;17.48;3.05;;;13.60;94.70;;;;;;5059957;28;20029;-67
2022/06/28 00:26:34;;;;;;;8.40;2.25;;;13.60;94.70;;;;;;5059553;28;20025;-67
2022/06/28 00:29:00;;;;;;;14.65;2.85;;;13.60;94.80;;;;;;5059809;28;20040;-67
2022/06/28 00:31:25;;;;;;;14.43;1.98;;;13.60;94.90;;;;;;5059521;28;20026;-67
2022/06/28 00:33:51;;;;;;;12.77;2.25;;;13.60;95.10;;;;;;5043553;28;20029;-68
2022/06/28 00:36:17;;;;;;;12.88;2.30;;;13.50;95.20;;;;;;5042465;28;20051;-68
2022/06/28 00:38:43;;;;;;;13.77;2.38;;;13.40;95.40;;;;;;5059345;28;20028;-68
2022/06/28 00:41:09;;;;;;;13.95;2.00;;;13.40;95.50;;;;;;5042785;28;20102;-68
2022/06/28 00:43:36;;;;;;;15.60;2.40;;;13.30;95.70;;;;;;5043756;28;20106;-67
2022/06/28 00:46:02;;;;;;;13.05;2.28;;;13.30;95.80;;;;;;5043689;28;20093;-69
2022/06/28 00:48:28;;;;;;;11.98;2.20;;;13.40;95.80;;;;;;5043752;28;20080;-68
2022/06/28 00:50:55;;;;;;;17.92;2.50;;;13.40;95.80;;;;;;5058273;28;20052;-70
2022/06/28 00:53:21;;;;;;;11.77;1.80;;;13.40;95.70;;;;;;5059120;28;20017;-68
2022/06/28 00:55:47;;;;;;;15.55;2.50;;;13.40;95.90;;;;;;5059010;28;20049;-68
2022/06/28 00:58:15;;;;;;;18.40;2.75;;;13.30;96.00;;;;;;5043321;28;20028;-69
2022/06/28 01:00:46;;;;;;;11.82;1.90;;;13.30;96.00;;;;;;5042764;28;20309;-68
2022/06/28 01:03:15;;;;;;;13.48;2.13;;;13.30;96.10;;;;;;5042187;28;20092;-67
2022/06/28 01:05:42;;;;;;;12.35;2.35;;;13.20;96.30;;;;;;5058870;28;20032;-68
2022/06/28 01:08:08;;;;;;;17.90;1.92;;;13.10;96.40;;;;;;5059400;28;20068;-66
2022/06/28 01:10:35;;;;;;;16.25;2.22;;;13.10;96.70;;;;;;5041279;28;20197;-68
2022/06/28 01:13:02;;;;;;;13.50;2.40;;;13.00;96.90;;;;;;5058968;28;20028;-68
2022/06/28 01:15:29;;;;;;;11.27;2.00;;;13.00;96.90;;;;;;5043560;28;20021;-67
2022/06/28 01:17:55;;;;;;;11.77;2.20;;;13.00;97.00;;;;;;5058799;28;20045;-67
2022/06/28 01:20:21;;;;;;;11.93;1.70;;;13.00;97.10;;;;;;5043789;28;20022;-67
2022/06/28 01:22:47;;;;;;;11.70;1.77;;;12.90;97.20;;;;;;5043219;28;20048;-68
2022/06/28 01:25:13;;;;;;;13.68;2.15;;;12.90;97.30;;;;;;5058569;28;20321;-67
2022/06/28 01:27:40;;;;;;;16.45;2.42;;;12.90;97.40;;;;;;5043555;28;20021;-67
2022/06/28 01:30:07;;;;;;;12.35;1.83;;;12.90;97.40;;;;;;5043330;28;20304;-68
2022/06/28 01:32:33;;;;;;;16.17;2.80;;;12.90;97.50;;;;;;5043096;28;20312;-67
2022/06/28 01:35:01;;;;;;;15.90;2.00;;;12.80;97.60;;;;;;5042522;28;20044;-68
2022/06/28 01:37:27;;;;;;;10.18;1.80;;;12.80;97.70;;;;;;5058762;28;20017;-68
2022/06/28 01:39:53;;;;;;;9.80;2.20;;;12.80;97.70;;;;;;5058453;28;20025;-69
2022/06/28 01:42:19;;;;;;;14.63;1.83;;;12.80;97.70;;;;;;5043258;28;20303;-69
2022/06/28 01:44:46;;;;;;;12.77;2.10;;;12.80;97.80;;;;;;5041624;28;20324;-68
2022/06/28 01:47:13;;;;;;;12.57;2.28;;;12.80;97.90;;;;;;5042071;28;20017;-67
2022/06/28 01:49:39;;;;;;;12.77;2.08;;;12.80;97.90;;;;;;5041784;28;20065;-68
2022/06/28 01:52:06;;;;;;;12.20;2.13;;;12.80;97.90;;;;;;5043033;28;20040;-67
2022/06/28 01:54:31;;;;;;;17.67;2.40;;;12.80;97.90;;;;;;5042449;28;20025;-68
2022/06/28 01:56:57;;;;;;;20.83;2.22;;;12.70;98.00;;;;;;5043317;28;20316;-68
2022/06/28 01:59:24;;;;;;;15.02;2.00;;;12.70;98.10;;;;;;5043066;28;20331;-69
2022/06/28 02:01:50;;;;;;;11.32;1.85;;;12.70;98.10;;;;;;5043327;28;20018;-66
2022/06/28 02:04:26;;;;;;;19.83;2.28;;;12.70;98.20;;;;;;5045438;28;20089;-70
2022/06/28 02:06:52;;;;;;;14.25;2.53;;;12.70;98.20;;;;;;5046598;28;20020;-68
2022/06/28 02:09:18;;;;;;;12.68;2.22;;;12.70;98.40;;;;;;5045923;28;20041;-67
2022/06/28 02:11:44;;;;;;;14.85;2.10;;;12.70;98.50;;;;;;5060122;28;20064;-70
2022/06/28 02:14:10;;;;;;;13.50;3.22;;;12.70;98.50;;;;;;5062014;28;20021;-68
2022/06/28 02:16:37;;;;;;;17.73;2.40;;;12.70;98.70;;;;;;5046306;28;20057;-69
2022/06/28 02:19:03;;;;;;;18.83;2.58;;;12.70;98.70;;;;;;5046424;28;20022;-69
2022/06/28 02:21:35;;;;;;;12.68;2.40;;;12.70;98.70;;;;;;5045167;28;20023;-69
2022/06/28 02:24:00;;;;;;;11.70;2.28;;;12.60;99.00;;;;;;5044972;28;20026;-67
2022/06/28 02:26:26;;;;;;;20.13;2.60;;;12.50;99.10;;;;;;5044791;28;20064;-68
2022/06/28 02:28:52;;;;;;;24.25;2.92;;;12.50;99.30;;;;;;5061858;28;20026;-67
2022/06/28 02:31:18;;;;;;;26.38;2.65;;;12.50;99.40;;;;;;5046084;28;20132;-69
2022/06/28 02:33:44;;;;;;;15.68;2.33;;;12.50;99.40;;;;;;5046234;28;20029;-69
2022/06/28 02:41:41;;;;;;;12.98;2.40;;;12.50;99.70;;;;;;5045389;28;20017;-67
2022/06/28 02:44:06;;;;;;;16.08;2.28;;;12.50;99.80;;;;;;5045824;28;20041;-68
2022/06/28 02:46:32;;;;;;;13.05;2.08;;;12.50;99.80;;;;;;5061376;28;20029;-68
2022/06/28 02:48:58;;;;;;;14.38;2.60;;;12.50;99.90;;;;;;5061177;28;20039;-69
2022/06/28 02:51:24;;;;;;;13.13;2.22;;;12.40;99.90;;;;;;5045444;28;20029;-69
2022/06/28 02:53:52;;;;;;;15.30;2.28;;;12.40;99.90;;;;;;5045719;28;20040;-69
2022/06/28 02:56:18;;;;;;;14.02;3.05;;;12.50;99.90;;;;;;5044236;28;20373;-66
2022/06/28 02:58:44;;;;;;;22.60;2.97;;;12.40;99.90;;;;;;5044707;28;20021;-69
2022/06/28 03:01:09;;;;;;;18.25;2.55;;;12.40;99.90;;;;;;5045941;28;20032;-68
2022/06/28 03:03:35;;;;;;;18.70;2.58;;;12.40;99.90;;;;;;5045613;28;20017;-67
2022/06/28 03:06:01;;;;;;;11.18;1.65;;;12.40;99.90;;;;;;5045563;28;20036;-69
2022/06/28 03:08:26;;;;;;;15.52;2.40;;;12.30;99.90;;;;;;5060931;28;20026;-68
2022/06/28 03:10:52;;;;;;;15.98;1.98;;;12.30;99.90;;;;;;5059553;28;20025;-69
2022/06/28 03:13:18;;;;;;;19.95;2.63;;;12.30;99.90;;;;;;5043988;28;20029;-67
2022/06/28 03:15:44;;;;;;;13.65;2.65;;;12.30;99.90;;;;;;5045393;28;20033;-68
2022/06/28 03:18:09;;;;;;;14.85;2.15;;;12.30;99.90;;;;;;5044843;28;20076;-68
2022/06/28 03:20:35;;;;;;;15.20;2.25;;;12.20;99.90;;;;;;5044960;28;20017;-67
2022/06/28 03:23:01;;;;;;;16.95;2.40;;;12.20;99.90;;;;;;5045647;28;20021;-70
2022/06/28 03:25:27;;;;;;;17.60;2.25;;;12.20;99.90;;;;;;5044840;28;20025;-67
2022/06/28 03:27:52;;;;;;;18.63;2.47;;;12.20;99.90;;;;;;5045482;28;20248;-68
2022/06/28 03:30:18;;;;;;;16.42;2.05;;;12.20;99.90;;;;;;5045190;28;20236;-67
2022/06/28 03:32:44;;;;;;;21.33;2.10;;;12.10;99.90;;;;;;5043794;28;20362;-68
2022/06/28 03:35:09;;;;;;;16.23;2.53;;;12.20;99.90;;;;;;5060050;28;20021;-67
2022/06/28 03:37:36;;;;;;;22.83;2.75;;;12.20;99.90;;;;;;5060744;28;20025;-68
2022/06/28 03:40:02;;;;;;;20.35;2.45;;;12.30;99.90;;;;;;5043091;28;20096;-68
2022/06/28 03:42:28;;;;;;;14.63;2.30;;;12.30;99.90;;;;;;5060609;28;20044;-66
2022/06/28 03:44:54;;;;;;;22.83;2.65;;;12.40;99.90;;;;;;5077036;28;20017;-68
2022/06/28 03:47:20;;;;;;;16.83;1.92;;;12.50;99.90;;;;;;5060298;28;20036;-68
2022/06/28 03:49:47;;;;;;;16.30;2.42;;;12.50;99.90;;;;;;5043680;28;20053;-69
2022/06/28 03:52:14;;;;;;;15.73;2.38;;;12.60;99.90;;;;;;5059947;28;20028;-67
2022/06/28 03:54:39;;;;;;;23.40;3.05;;;12.60;99.90;;;;;;5044636;28;20040;-66
2022/06/28 03:57:05;;;;;;;18.27;2.45;;;12.70;99.90;;;;;;5059739;28;20299;-67
2022/06/28 03:59:32;;;;;;;11.48;2.50;;;12.70;99.90;;;;;;5044240;28;20080;-70
2022/06/28 04:01:57;;;;;;;17.13;2.40;;;12.70;99.90;;;;;;5044159;28;20300;-67
2022/06/28 04:04:23;;;;;;;19.05;2.15;;;12.60;99.90;;;;;;5043339;28;20025;-68
2022/06/28 04:06:49;;;;;;;15.05;2.35;;;12.70;99.90;;;;;;5044278;28;20017;-69
2022/06/28 04:09:14;;;;;;;15.05;2.05;;;12.70;99.90;;;;;;5044244;28;20032;-68
2022/06/28 04:11:40;;;;;;;15.20;2.22;;;12.60;99.90;;;;;;5042369;28;20093;-67
2022/06/28 04:14:06;;;;;;;15.50;1.77;;;12.70;99.90;;;;;;5044040;28;20052;-68
2022/06/28 04:16:32;;;;;;;15.32;2.38;;;12.70;99.90;;;;;;5044406;28;20032;-69
2022/06/28 04:18:58;;;;;;;10.63;1.95;;;12.70;99.90;;;;;;5044422;28;20036;-68
2022/06/28 04:21:24;;;;;;;19.80;2.35;;;12.60;99.90;;;;;;5043309;28;20081;-67
2022/06/28 04:23:49;;;;;;;14.32;2.20;;;12.60;99.90;;;;;;5059429;28;20017;-68
2022/06/28 04:26:15;;;;;;;20.25;2.75;;;12.50;99.90;;;;;;5043435;28;20031;-67
2022/06/28 04:28:41;;;;;;;21.60;2.63;;;12.50;99.90;;;;;;5059712;28;20091;-68
2022/06/28 04:31:08;;;;;;;14.63;2.90;;;12.50;99.90;;;;;;5043996;28;20092;-68
2022/06/28 04:33:34;;;;;;;16.85;2.17;;;12.50;99.90;;;;;;5042780;28;20267;-68
2022/06/28 04:36:00;;;;;;;15.35;2.35;;;12.60;99.90;;;;;;5043690;28;20060;-67
2022/06/28 04:38:26;;;;;;;19.80;2.90;;;12.70;99.90;;;;;;5042107;28;20017;-69
2022/06/28 04:40:52;;;;;;;21.02;2.33;;;12.80;99.90;;;;;;5043948;28;20037;-68
2022/06/28 04:43:17;;;;;;;21.45;2.75;;;12.90;99.90;;;;;;5043725;28;20313;-68
2022/06/28 04:45:43;;;;;;;14.68;1.98;;;13.10;99.90;;;;;;5042457;28;20029;-67
2022/06/28 04:48:09;;;;;;;13.38;2.40;;;13.20;99.90;;;;;;5043397;28;20027;-68
2022/06/28 04:50:34;;;;;;;17.80;2.53;;;13.30;99.90;;;;;;5043425;28;20111;-68
2022/06/28 04:53:00;;;;;;;14.98;2.38;;;13.30;99.90;;;;;;5043331;28;20040;-69
2022/06/28 04:55:26;;;;;;;11.45;2.50;;;13.40;99.90;;;;;;5043903;28;20024;-68
2022/06/28 04:57:52;;;;;;;22.85;2.55;;;13.50;99.90;;;;;;5043746;28;20022;-68
2022/06/28 05:00:18;;;;;;;17.30;2.13;;;13.50;99.90;;;;;;5059312;28;20208;-68
2022/06/28 05:02:44;;;;;;;18.08;1.98;;;13.60;99.90;;;;;;5043863;28;20029;-69
2022/06/28 05:05:10;;;;;;;16.58;2.20;;;13.60;99.90;;;;;;5043904;28;20025;-68
2022/06/28 05:07:36;;;;;;;21.65;2.63;;;13.70;99.80;;;;;;5043642;28;20032;-68
2022/06/28 05:10:03;;;;;;;21.95;2.40;;;13.70;99.80;;;;;;5043480;28;20032;-69
2022/06/28 05:12:29;;;;;;;15.18;2.35;;;13.70;99.80;;;;;;5057583;28;20032;-67
2022/06/28 05:14:54;;;;;;;28.05;3.38;;;13.80;99.70;;;;;;5058798;28;20041;-68
2022/06/28 05:17:20;;;;;;;26.25;4.07;;;13.90;99.50;;;;;;5043447;28;20243;-68
2022/06/28 05:19:46;;;;;;;25.75;4.20;;;13.90;99.50;;;;;;5042334;28;20320;-68
2022/06/28 05:22:12;;;;;;;24.42;3.35;;;13.90;99.40;;;;;;5042107;28;20029;-68
2022/06/28 05:24:38;;;;;;;19.75;2.70;;;14.00;99.30;;;;;;5043452;28;20304;-70
2022/06/28 05:27:04;;;;;;;15.63;2.35;;;14.10;99.20;;;;;;5043067;28;20041;-68
2022/06/28 05:29:30;;;;;;;20.08;2.22;;;14.20;99.10;;;;;;5058894;28;20036;-68
2022/06/28 05:31:56;;;;;;;18.15;2.67;;;14.30;98.90;;;;;;5042808;28;20029;-67
2022/06/28 05:34:23;;;;;;;17.42;2.67;;;14.30;98.90;;;;;;5041673;28;20211;-68
2022/06/28 05:36:49;;;;;;;14.10;2.20;;;14.40;98.70;;;;;;5038688;28;20026;-69
2022/06/28 05:39:15;;;;;;;26.50;3.03;;;14.40;98.50;;;;;;5060227;28;20025;-68
2022/06/28 05:41:42;;;;;;;14.57;2.15;;;14.30;98.70;;;;;;5061948;28;20331;-67
2022/06/28 05:44:09;;;;;;;16.20;2.45;;;14.30;99.00;;;;;;5059244;28;20032;-67
2022/06/28 05:46:34;;;;;;;22.23;2.92;;;14.40;98.80;;;;;;5075044;28;20234;-67
2022/06/28 05:49:01;;;;;;;17.08;2.40;;;14.40;98.90;;;;;;5043941;28;20065;-68
2022/06/28 05:51:29;;;;;;;19.30;2.83;;;14.50;98.70;;;;;;5046658;28;20308;-69
2022/06/28 05:53:55;;;;;;;11.23;2.30;;;14.70;98.80;;;;;;5046698;28;20021;-69
2022/06/28 05:56:20;;;;;;;20.65;3.05;;;14.80;98.40;;;;;;5045208;28;20032;-68
2022/06/28 05:58:46;;;;;;;19.52;2.92;;;14.90;98.20;;;;;;5028841;28;20337;-68
2022/06/28 06:01:12;;;;;;;16.23;2.20;;;14.90;98.20;;;;;;5045683;28;20320;-68
2022/06/28 06:03:38;;;;;;;13.90;1.95;;;15.10;98.00;;;;;;5046134;28;20232;-68
2022/06/28 06:06:04;;;;;;;17.50;2.08;;;15.00;97.80;;;;;;5046826;28;20021;-68
2022/06/28 06:08:29;;;;;;;19.88;2.42;;;15.00;98.00;;;;;;5046645;28;20036;-68
2022/06/28 06:10:55;;;;;;;15.43;2.72;;;15.10;98.00;;;;;;5077750;28;20017;-67
2022/06/28 06:13:21;;;;;;;13.60;2.05;;;15.20;98.10;;;;;;5044013;28;20044;-68
2022/06/28 06:15:46;;;;;;;17.75;2.40;;;15.30;97.70;;;;;;5045607;28;20463;-69
2022/06/28 06:18:12;;;;;;;13.23;2.35;;;15.40;97.50;;;;;;5045857;28;20025;-67
2022/06/28 06:20:38;;;;;;;15.18;2.10;;;15.60;97.30;;;;;;5046121;28;20021;-67
2022/06/28 06:23:03;;;;;;;21.52;2.80;;;15.80;96.70;;;;;;5077596;28;20068;-68
2022/06/28 06:25:29;;;;;;;14.02;2.35;;;15.90;96.50;;;;;;5045722;28;20021;-68
2022/06/28 06:27:54;;;;;;;17.55;2.30;;;16.00;96.30;;;;;;5045890;28;20064;-68
2022/06/28 06:30:20;;;;;;;18.17;2.58;;;16.10;96.00;;;;;;5044687;28;20028;-70
2022/06/28 06:32:46;;;;;;;22.58;2.72;;;16.20;96.20;;;;;;5045869;28;20029;-69
2022/06/28 06:35:12;;;;;;;16.48;2.80;;;16.30;96.00;;;;;;5045518;28;20035;-66
2022/06/28 06:37:37;;;;;;;10.90;2.40;;;16.40;95.80;;;;;;5044497;28;20100;-69
2022/06/28 06:40:03;;;;;;;17.73;2.40;;;16.60;95.30;;;;;;5044948;28;20308;-67
2022/06/28 06:42:29;;;;;;;20.45;2.85;;;16.80;94.80;;;;;;5061070;28;20033;-69
2022/06/28 06:44:56;;;;;;;29.17;2.80;;;17.00;94.60;;;;;;5043595;28;20021;-70
2022/06/28 06:47:22;;;;;;;19.75;2.50;;;17.20;94.00;;;;;;5045044;28;20320;-68
2022/06/28 06:49:48;;;;;;;22.45;2.35;;;17.20;93.80;;;;;;5044813;28;20378;-68
2022/06/28 06:52:14;;;;;;;16.27;2.63;;;17.20;93.70;;;;;;5060026;28;20021;-69
2022/06/28 06:54:39;;;;;;;24.65;2.92;;;17.40;93.60;;;;;;5045267;28;20029;-69
2022/06/28 06:57:06;;;;;;;13.18;2.05;;;17.40;93.10;;;;;;5053633;28;20021;-69
2022/06/28 06:59:31;;;;;;;14.07;2.55;;;17.40;92.70;;;;;;5064830;28;20027;-66
2022/06/28 07:01:57;;;;;;;13.35;1.95;;;17.40;92.90;;;;;;5055133;28;20021;-67
2022/06/28 07:04:22;;;;;;;10.73;2.03;;;17.40;92.60;;;;;;5044601;28;20021;-66
2022/06/28 07:06:48;;;;;;;26.73;3.05;;;17.30;93.00;;;;;;5044367;28;20021;-65
2022/06/28 07:09:14;;;;;;;14.40;2.15;;;17.30;93.10;;;;;;5060211;28;20020;-66
2022/06/28 07:11:40;;;;;;;18.67;2.42;;;17.30;93.10;;;;;;5043256;28;20079;-66
2022/06/28 07:14:05;;;;;;;17.83;2.53;;;17.30;92.80;;;;;;5042264;28;20216;-65
2022/06/28 07:16:31;;;;;;;14.05;2.05;;;17.40;92.50;;;;;;5043565;28;20139;-63
2022/06/28 07:18:58;;;;;;;15.90;2.03;;;17.40;92.40;;;;;;5044168;28;20025;-66
2022/06/28 07:21:24;;;;;;;19.38;2.42;;;17.40;92.60;;;;;;5042819;28;20308;-65
2022/06/28 07:23:49;;;;;;;13.68;1.75;;;17.50;92.70;;;;;;5042684;28;20023;-68
2022/06/28 07:26:16;;;;;;;17.30;2.25;;;17.50;92.20;;;;;;5044360;28;20056;-66
2022/06/28 07:28:46;;;;;;;11.23;2.53;;;17.60;91.70;;;;;;5044214;28;20201;-66
2022/06/28 07:31:11;;;;;;;18.10;2.65;;;17.50;92.30;;;;;;5043391;28;20350;-67
2022/06/28 07:33:37;;;;;;;17.67;2.20;;;17.60;92.20;;;;;;5043783;28;20044;-69
2022/06/28 07:36:03;;;;;;;17.20;2.10;;;17.70;92.00;;;;;;5058941;28;20052;-67
2022/06/28 07:38:30;;;;;;;13.40;2.10;;;18.00;91.90;;;;;;5058833;28;20025;-66
2022/06/28 07:40:57;;;;;;;14.35;2.58;;;18.10;91.40;;;;;;5058339;28;20025;-65
2022/06/28 07:43:24;;;;;;;12.05;2.13;;;18.20;91.20;;;;;;5043552;28;20021;-67
2022/06/28 07:45:52;;;;;;;11.57;1.95;;;18.30;90.80;;;;;;5041405;28;20072;-65
2022/06/28 07:48:19;;;;;;;11.30;1.60;;;18.30;90.40;;;;;;5029008;28;20025;-66
2022/06/28 07:53:32;;;;;;;11.90;2.05;;;18.40;90.00;;;;;;5056364;28;20307;-65
2022/06/28 07:56:00;;;;;;;12.95;2.20;;;18.60;88.90;;;;;;5042478;28;20049;-67
2022/06/28 07:58:25;;;;;;;17.73;2.45;;;18.80;88.30;;;;;;5056734;28;20071;-66
2022/06/28 08:00:51;;;;;;;10.30;1.83;;;18.80;88.10;;;;;;5040206;28;20352;-65
2022/06/28 08:03:17;;;;;;;18.20;1.83;;;18.60;87.60;;;;;;5039836;28;20114;-67
2022/06/28 08:05:43;;;;;;;11.90;1.52;;;18.40;86.90;;;;;;5040649;28;20033;-65
2022/06/28 08:08:09;;;;;;;8.27;1.60;;;18.00;87.40;;;;;;5042201;28;20172;-65
2022/06/28 08:10:35;;;;;;;17.33;2.33;;;17.90;88.70;;;;;;5042165;28;20025;-66
2022/06/28 08:13:01;;;;;;;14.55;2.72;;;18.00;88.30;;;;;;5040974;28;20206;-66
2022/06/28 08:15:26;;;;;;;15.10;1.92;;;18.10;88.20;;;;;;5039571;28;20017;-64
2022/06/28 08:17:53;;;;;;;12.63;1.80;;;18.10;88.50;;;;;;5041697;28;20040;-67
2022/06/28 08:20:19;;;;;;;14.55;2.20;;;18.10;88.50;;;;;;5042054;28;20045;-66
2022/06/28 08:22:44;;;;;;;14.40;2.00;;;18.10;88.90;;;;;;5041033;28;20056;-69
2022/06/28 08:25:10;;;;;;;17.65;1.83;;;18.20;88.50;;;;;;5042696;28;20048;-66
2022/06/28 08:27:36;;;;;;;9.57;1.63;;;18.30;88.60;;;;;;5042610;28;20268;-66
2022/06/28 08:30:02;;;;;;;23.10;2.58;;;18.30;88.20;;;;;;5042835;28;20319;-67
2022/06/28 08:32:27;;;;;;;15.55;2.20;;;18.10;88.70;;;;;;5042473;28;20021;-66
2022/06/28 08:34:53;;;;;;;10.25;1.95;;;17.80;89.30;;;;;;5041810;28;20021;-68
2022/06/28 08:37:19;;;;;;;10.05;1.75;;;17.70;90.00;;;;;;5042274;28;20025;-65
2022/06/28 08:39:45;;;;;;;11.82;2.20;;;17.80;90.30;;;;;;5043185;28;20025;-68
2022/06/28 08:42:12;;;;;;;14.68;2.10;;;17.90;90.00;;;;;;5042926;28;20075;-64
2022/06/28 08:44:39;;;;;;;16.20;1.95;;;18.10;89.60;;;;;;5041028;28;20021;-67
2022/06/28 08:47:05;;;;;;;8.25;1.50;;;18.20;87.60;;;;;;5041900;28;20036;-67
2022/06/28 08:49:57;;;;;;;10.60;1.42;;;18.20;88.20;;;;;;5042449;28;20053;-67
2022/06/28 08:52:23;;;;;;;21.13;2.00;;;18.20;87.60;;;;;;5033872;28;20026;-66
2022/06/28 08:54:50;;;;;;;18.05;2.63;;;18.10;88.80;;;;;;5024064;28;20025;-65
2022/06/28 08:57:19;;;;;;;14.38;1.90;;;17.90;89.00;;;;;;5041212;28;20075;-66
2022/06/28 08:59:47;;;;;;;15.75;2.22;;;17.90;89.30;;;;;;5042060;28;20024;-66
2022/06/28 09:02:14;;;;;;;10.27;1.83;;;17.70;89.90;;;;;;5041004;28;20028;-67
2022/06/28 09:04:44;;;;;;;9.77;1.88;;;17.50;90.40;;;;;;5042490;28;20013;-65
2022/06/28 09:07:10;;;;;;;18.30;2.47;;;17.50;90.00;;;;;;5042614;28;20040;-65
2022/06/28 09:09:35;;;;;;;11.80;1.85;;;17.70;90.00;;;;;;5041933;28;20075;-66
2022/06/28 09:12:02;;;;;;;9.05;1.90;;;18.00;89.40;;;;;;5043955;28;20297;-66
2022/06/28 09:14:31;;;;;;;16.30;2.30;;;18.20;87.90;;;;;;5046166;28;20300;-67
2022/06/28 09:16:58;;;;;;;11.32;1.90;;;18.50;87.30;;;;;;5059497;28;20033;-65
2022/06/28 09:19:38;;;;;;;14.23;1.80;;;18.60;86.40;;;;;;5046986;28;20092;-67
2022/06/28 09:22:05;;;;;;;17.23;2.40;;;18.70;85.20;;;;;;5046169;28;20025;-66
2022/06/28 09:24:32;;;;;;;11.02;1.65;;;18.70;85.50;;;;;;5046737;28;20033;-69
2022/06/28 09:27:02;;;;;;;11.65;1.70;;;18.60;84.50;;;;;;5046248;28;20097;-68
2022/06/28 09:29:28;;;;;;;9.15;1.30;;;18.50;84.70;;;;;;5045093;28;20025;-68
2022/06/28 09:31:54;;;;;;;7.55;1.58;;;18.50;83.00;;;;;;5046292;28;20051;-67
2022/06/28 09:34:19;;;;;;;11.20;1.85;;;18.50;83.30;;;;;;5046665;28;20040;-66
2022/06/28 09:36:56;;;;;;;14.43;1.60;;;18.50;83.50;;;;;;5046001;28;20304;-67
2022/06/28 09:39:27;;;;;;;13.10;1.73;;;18.70;83.30;;;;;;5045023;28;20205;-68
2022/06/28 09:41:54;;;;;;;16.75;1.88;;;18.90;83.60;;;;;;5043561;28;20068;-66
2022/06/28 09:44:29;;;;;;;10.73;1.45;;;19.10;83.30;;;;;;5045664;28;20025;-65
2022/06/28 09:46:57;;;;;;;8.60;1.25;;;19.10;81.30;;;;;;5060917;28;20339;-67
2022/06/28 09:49:31;;;;;;;13.38;1.92;;;19.10;82.00;;;;;;5046218;28;20025;-66
2022/06/28 09:51:59;;;;;;;12.98;1.45;;;19.20;80.60;;;;;;5045299;28;20034;-67
2022/06/28 09:54:27;;;;;;;11.20;1.60;;;19.20;80.80;;;;;;5044785;28;20021;-65
2022/06/28 09:56:55;;;;;;;9.25;1.77;;;19.40;82.00;;;;;;5045849;28;20083;-65
2022/06/28 09:59:23;;;;;;;15.57;1.83;;;19.60;80.90;;;;;;5045508;28;20021;-66
2022/06/28 10:01:52;;;;;;;12.43;1.98;;;19.60;80.60;;;;;;5045968;28;20056;-67
2022/06/28 10:04:18;;;;;;;13.52;1.58;;;19.40;80.60;;;;;;5045361;28;20029;-65
2022/06/28 10:06:44;;;;;;;7.40;1.27;;;19.40;81.70;;;;;;5045963;28;20041;-66
2022/06/28 10:09:10;;;;;;;25.63;13.23;;;19.50;81.60;;;;;;5044799;28;20037;-66
2022/06/28 10:17:49;;;;;;;27.15;1.83;;;19.60;81.70;;;;;;5041802;28;20028;-68
2022/06/28 10:20:23;;;;;;;7.40;1.25;;;19.40;80.90;;;;;;5043600;28;20034;-69
2022/06/28 10:22:51;;;;;;;12.10;2.00;;;19.30;80.70;;;;;;5043958;28;20018;-68
2022/06/28 10:25:21;;;;;;;7.38;1.80;;;19.40;81.00;;;;;;5045742;28;20044;-67
2022/06/28 10:27:50;;;;;;;12.23;1.83;;;19.60;80.80;;;;;;5044278;28;20035;-68
2022/06/28 10:30:22;;;;;;;16.33;1.70;;;19.80;80.30;;;;;;5043680;28;20025;-66
2022/06/28 10:32:51;;;;;;;12.88;1.95;;;19.80;80.50;;;;;;5045140;28;20036;-71
2022/06/28 10:35:57;;;;;;;11.85;1.70;;;19.70;81.10;;;;;;5044801;28;20136;-67
2022/06/28 10:38:23;;;;;;;13.90;1.95;;;19.80;80.00;;;;;;5044044;28;20213;-69
2022/06/28 10:40:49;;;;;;;24.98;2.10;;;20.00;80.50;;;;;;5045156;28;20021;-68
2022/06/28 10:43:42;;;;;;;10.88;1.85;;;20.40;79.60;;;;;;5044806;28;20036;-67
2022/06/28 10:46:09;;;;;;;7.28;1.50;;;20.30;79.20;;;;;;5031133;28;20021;-68
2022/06/28 10:49:04;;;;;;;9.40;1.20;;;20.20;78.60;;;;;;5059608;28;20025;-68
2022/06/28 10:51:29;;;;;;;14.90;1.60;;;20.40;78.60;;;;;;5055249;28;20064;-70
2022/06/28 10:54:01;;;;;;;8.57;1.27;;;20.30;78.40;;;;;;5043878;28;20057;-68
2022/06/28 10:56:29;;;;;;;12.68;1.70;;;20.00;79.10;;;;;;5042287;28;20029;-68
2022/06/28 10:59:02;;;;;;;5.70;0.98;;;19.90;79.40;;;;;;5044557;28;20033;-70
2022/06/28 11:01:52;;;;;;;10.75;1.77;;;19.90;79.30;;;;;;5076448;28;20108;-69
2022/06/28 11:04:24;;;;;;;19.23;2.25;;;20.20;79.50;;;;;;5056400;28;20029;-66
2022/06/28 11:07:11;;;;;;;10.25;1.80;;;20.20;79.30;;;;;;5059685;28;20013;-69
2022/06/28 11:10:10;;;;;;;8.95;1.30;;;20.00;79.30;;;;;;5056533;28;20033;-68
2022/06/28 11:12:39;;;;;;;12.07;1.60;;;19.90;79.00;;;;;;5043818;28;20045;-70
2022/06/28 11:15:10;;;;;;;14.48;1.77;;;19.90;79.20;;;;;;5043979;28;20026;-68
2022/06/28 11:17:40;;;;;;;12.02;1.83;;;20.00;79.80;;;;;;5060302;28;20067;-68
2022/06/28 11:20:12;;;;;;;9.82;1.23;;;20.00;80.10;;;;;;5041166;28;20033;-69
2022/06/28 11:22:47;;;;;;;3.25;0.82;;;19.90;80.80;;;;;;5057555;28;20128;-68
2022/06/28 11:25:16;;;;;;;9.88;1.50;;;20.10;80.20;;;;;;5057382;28;20067;-69
2022/06/28 11:27:45;;;;;;;11.23;1.40;;;20.10;80.60;;;;;;5057309;28;20025;-69
2022/06/28 11:30:12;;;;;;;7.05;1.27;;;20.30;79.50;;;;;;5057038;28;20025;-69
2022/06/28 11:32:41;;;;;;;12.13;1.50;;;20.30;79.10;;;;;;5042910;28;20025;-68
2022/06/28 11:35:12;;;;;;;5.95;1.63;;;20.20;79.10;;;;;;5043109;28;20025;-70
2022/06/28 11:37:55;;;;;;;9.77;1.63;;;20.50;77.70;;;;;;5042760;28;20033;-68
2022/06/28 11:40:25;;;;;;;10.45;1.80;;;20.30;78.10;;;;;;5026569;28;20029;-69
2022/06/28 11:43:09;;;;;;;11.73;1.50;;;20.30;78.70;;;;;;5042353;28;20025;-69
2022/06/28 11:45:42;;;;;;;12.52;1.92;;;20.20;79.10;;;;;;5043437;28;20045;-68
2022/06/28 11:48:12;;;;;;;13.52;1.73;;;20.20;79.10;;;;;;5043040;28;20018;-68
2022/06/28 11:50:44;;;;;;;7.60;1.30;;;20.50;78.50;;;;;;5042986;28;20057;-66
2022/06/28 11:53:11;;;;;;;10.95;1.65;;;20.40;77.30;;;;;;5043085;28;20033;-68
2022/06/28 11:55:44;;;;;;;9.02;1.48;;;20.70;77.20;;;;;;5042957;28;20207;-69
2022/06/28 11:58:20;;;;;;;10.32;1.65;;;20.90;76.50;;;;;;5059099;28;20308;-67
2022/06/28 12:01:11;;;;;;;13.07;2.03;;;21.10;75.30;;;;;;5043575;28;20037;-70
2022/06/28 12:03:59;;;;;;;12.80;1.92;;;21.30;74.90;;;;;;5043586;28;20018;-71
2022/06/28 12:06:29;;;;;;;13.43;1.58;;;21.60;74.10;;;;;;5035938;28;20037;-67
2022/06/28 12:09:06;;;;;;;9.73;1.50;;;21.50;72.80;;;;;;5039487;28;20026;-68
2022/06/28 12:11:40;;;;;;;12.07;1.50;;;21.40;73.50;;;;;;5039090;28;20037;-69
2022/06/28 12:14:14;;;;;;;9.68;1.40;;;21.40;74.30;;;;;;5031179;28;20024;-67
2022/06/28 12:16:45;;;;;;;4.13;1.27;;;21.20;75.10;;;;;;5042020;28;20029;-69
2022/06/28 12:19:14;;;;;;;;;;;21.30;75.20;;;;;;5057690;28;20156;-67
2022/06/28 12:22:20;;;;;;;14.55;2.13;;;21.30;75.30;;;;;;5042593;28;19901;-66
2022/06/28 12:24:51;;;;;;;13.55;1.60;;;21.10;75.00;;;;;;5042463;28;20061;-66
2022/06/28 12:27:28;;;;;;;;;;;21.00;75.20;;;;;;5059272;28;20025;-68
2022/06/28 12:29:56;;;;;;;12.00;1.65;;;20.80;74.40;;;;;;5059113;28;19942;-69
2022/06/28 12:32:23;;;;;;;6.68;1.63;;;20.70;74.90;;;;;;5042198;28;20367;-68
2022/06/28 12:34:58;;;;;;;9.77;1.63;;;20.40;75.80;;;;;;5040826;28;20017;-68
2022/06/28 12:37:25;;;;;;;8.15;1.77;;;20.70;75.50;;;;;;5025552;28;20255;-68
2022/06/28 12:39:51;;;;;;;7.53;1.50;;;20.80;75.50;;;;;;5043081;28;20073;-68
2022/06/28 12:42:17;;;;;;;8.07;1.50;;;20.30;75.80;;;;;;5042874;28;20028;-69
2022/06/28 12:44:42;;;;;;;14.45;2.35;;;19.90;77.30;;;;;;5043104;28;20048;-67
2022/06/28 12:47:09;;;;;;;9.65;1.90;;;19.80;78.60;;;;;;5042301;28;20232;-68
2022/06/28 12:49:35;;;;;;;10.40;1.55;;;19.70;78.80;;;;;;5042203;28;20060;-71
2022/06/28 12:52:00;;;;;;;15.02;1.27;;;19.80;79.20;;;;;;5042880;28;20033;-68
2022/06/28 12:54:26;;;;;;;14.20;1.50;;;19.90;79.40;;;;;;5075057;28;20354;-68
2022/06/28 12:56:52;;;;;;;7.25;1.40;;;19.70;79.80;;;;;;5074479;28;20021;-67